createdAt,value
2022-09-04T00:01:47.049Z,19.73
2022-09-04T00:07:19.764Z,19.70
2022-09-04T00:12:28.535Z,19.68
2022-09-04T00:17:41.653Z,19.68
2022-09-04T00:22:55.314Z,19.66
2022-09-04T00:28:09.046Z,19.65
2022-09-04T00:33:20.634Z,19.63
2022-09-04T00:38:43.163Z,19.56
2022-09-04T00:44:13.121Z,19.53
2022-09-04T00:49:45.330Z,19.49
2022-09-04T00:55:22.357Z,19.45
2022-09-04T01:00:26.948Z,19.44
2022-09-04T01:05:38.747Z,19.42
2022-09-04T01:10:53.983Z,19.42
2022-09-04T01:16:22.089Z,19.36
2022-09-04T01:21:31.374Z,19.36
2022-09-04T01:26:51.671Z,19.34
2022-09-04T01:32:16.518Z,19.30
2022-09-04T01:37:25.742Z,19.25
2022-09-04T01:42:42.847Z,19.21
2022-09-04T01:47:48.976Z,19.17
2022-09-04T01:53:06.674Z,19.14
2022-09-04T01:58:28.618Z,19.09
2022-09-04T02:03:54.165Z,19.05
2022-09-04T02:09:40.259Z,19.01
2022-09-04T02:14:59.529Z,19.01
2022-09-04T02:20:16.079Z,19.02
2022-09-04T02:25:44.874Z,19.01
2022-09-04T02:31:23.591Z,18.99
2022-09-04T02:36:41.812Z,18.98
2022-09-04T02:42:19.520Z,18.96
2022-09-04T02:47:47.819Z,18.94
2022-09-04T02:53:18.275Z,18.93
2022-09-04T02:58:34.354Z,18.89
2022-09-04T03:03:49.650Z,18.86
2022-09-04T03:09:06.338Z,18.82
2022-09-04T03:14:13.298Z,18.79
2022-09-04T03:19:26.879Z,18.76
2022-09-04T03:24:43.951Z,18.73
2022-09-04T03:30:01.830Z,18.71
2022-09-04T03:35:23.124Z,18.69
2022-09-04T03:40:36.583Z,18.67
2022-09-04T03:45:50.669Z,18.65
2022-09-04T03:51:10.888Z,18.62
2022-09-04T03:56:31.288Z,18.57
2022-09-04T04:01:58.455Z,18.53
2022-09-04T04:07:19.803Z,18.46
2022-09-04T04:12:42.531Z,18.41
2022-09-04T04:18:13.447Z,18.39
2022-09-04T04:23:56.501Z,18.34
2022-09-04T04:29:17.864Z,18.28
2022-09-04T04:34:26.113Z,18.23
2022-09-04T04:39:35.917Z,18.15
2022-09-04T04:45:23.208Z,18.14
2022-09-04T04:50:28.902Z,18.13
2022-09-04T04:55:57.938Z,18.12
2022-09-04T05:01:48.253Z,18.12
2022-09-04T05:07:27.831Z,18.12
2022-09-04T05:13:11.363Z,18.11
2022-09-04T05:18:35.039Z,18.11
2022-09-04T05:23:51.663Z,18.13
2022-09-04T05:29:06.921Z,18.18
2022-09-04T05:34:08.422Z,18.24
2022-09-04T05:39:27.837Z,18.29
2022-09-04T05:44:38.879Z,18.35
2022-09-04T05:49:54.060Z,18.41
2022-09-04T05:55:01.477Z,18.47
2022-09-04T06:00:08.950Z,18.53
2022-09-04T06:05:28.531Z,18.58
2022-09-04T06:10:44.970Z,18.64
2022-09-04T06:16:11.687Z,18.71
2022-09-04T06:21:30.294Z,18.76
2022-09-04T06:26:56.462Z,18.81
2022-09-04T06:32:34.345Z,18.86
2022-09-04T06:38:02.259Z,18.93
2022-09-04T06:43:12.825Z,19.02
2022-09-04T06:49:03.925Z,19.09
2022-09-04T06:54:21.547Z,19.17
2022-09-04T06:59:41.155Z,19.26
2022-09-04T07:05:01.484Z,19.33
2022-09-04T07:10:10.742Z,19.41
2022-09-04T07:15:36.133Z,19.52
2022-09-04T07:20:52.967Z,19.63
2022-09-04T07:26:06.165Z,19.74
2022-09-04T07:31:31.211Z,19.80
2022-09-04T07:36:54.341Z,19.87
2022-09-04T07:42:18.008Z,19.96
2022-09-04T07:47:38.275Z,20.03
2022-09-04T07:53:11.494Z,20.09
2022-09-04T07:58:31.594Z,20.13
2022-09-04T08:03:56.438Z,20.20
2022-09-04T08:09:25.024Z,20.26
2022-09-04T08:14:53.373Z,20.34
2022-09-04T08:20:17.100Z,20.41
2022-09-04T08:26:14.095Z,20.51
2022-09-04T08:31:29.083Z,20.68
2022-09-04T08:36:51.771Z,20.82
2022-09-04T08:42:12.181Z,20.98
2022-09-04T08:47:53.556Z,21.13
2022-09-04T08:53:13.358Z,21.28
2022-09-04T08:58:31.869Z,21.41
2022-09-04T09:03:58.293Z,21.56
2022-09-04T09:09:18.116Z,21.71
2022-09-04T09:14:38.534Z,21.84
2022-09-04T09:19:44.436Z,21.96
2022-09-04T09:25:04.625Z,22.05
2022-09-04T09:30:07.920Z,22.17
2022-09-04T09:35:37.437Z,22.31
2022-09-04T09:40:58.001Z,22.41
2022-09-04T09:46:28.898Z,22.50
2022-09-04T09:51:49.258Z,22.61
2022-09-04T09:57:12.801Z,22.77
2022-09-04T10:02:48.423Z,22.91
2022-09-04T10:07:55.855Z,23.07
2022-09-04T10:13:34.869Z,23.24
2022-09-04T10:18:48.729Z,23.37
2022-09-04T10:24:18.153Z,23.53
2022-09-04T10:29:41.078Z,23.67
2022-09-04T10:35:03.186Z,23.82
2022-09-04T10:40:43.827Z,23.99
2022-09-04T10:46:13.944Z,24.18
2022-09-04T10:51:36.692Z,24.33
2022-09-04T10:56:48.178Z,24.57
2022-09-04T11:02:12.961Z,24.77
2022-09-04T11:07:51.446Z,24.95
2022-09-04T11:13:17.919Z,25.05
2022-09-04T11:19:10.780Z,25.08
2022-09-04T11:24:24.428Z,25.13
2022-09-04T11:29:47.771Z,25.12
2022-09-04T11:35:07.839Z,25.09
2022-09-04T11:40:41.567Z,25.07
2022-09-04T11:45:48.119Z,25.09
2022-09-04T11:50:59.387Z,25.08
2022-09-04T11:56:19.712Z,25.07
2022-09-04T12:01:30.642Z,25.09
2022-09-04T12:07:09.027Z,25.11
2022-09-04T12:12:32.353Z,25.12
2022-09-04T12:17:56.305Z,25.12
2022-09-04T12:23:23.285Z,25.12
2022-09-04T12:28:44.792Z,25.11
2022-09-04T12:34:23.411Z,25.10
2022-09-04T12:39:52.559Z,25.13
2022-09-04T12:45:00.293Z,25.15
2022-09-04T12:50:57.698Z,25.12
2022-09-04T12:56:27.862Z,25.11
2022-09-04T13:01:44.654Z,25.09
2022-09-04T13:07:01.862Z,25.08
2022-09-04T13:12:27.197Z,25.09
2022-09-04T13:17:37.819Z,25.00
2022-09-04T13:23:04.080Z,24.87
2022-09-04T13:28:30.367Z,24.59
2022-09-04T13:33:43.745Z,24.34
2022-09-04T13:39:20.391Z,24.06
2022-09-04T13:45:23.654Z,23.92
2022-09-04T13:51:01.026Z,23.84
2022-09-04T13:56:18.700Z,23.79
2022-09-04T14:01:27.856Z,23.82
2022-09-04T14:06:31.820Z,23.88
2022-09-04T14:11:52.956Z,23.93
2022-09-04T14:16:56.209Z,23.99
2022-09-04T14:22:15.001Z,24.05
2022-09-04T14:27:23.976Z,24.00
2022-09-04T14:32:58.203Z,23.93
2022-09-04T14:38:19.122Z,23.87
2022-09-04T14:43:45.789Z,23.83
2022-09-04T14:48:59.692Z,23.85
2022-09-04T14:54:02.499Z,23.92
2022-09-04T14:59:31.384Z,23.96
2022-09-04T15:04:40.947Z,24.01
2022-09-04T15:09:49.808Z,24.05
2022-09-04T15:15:02.965Z,24.23
2022-09-04T15:20:22.460Z,24.49
2022-09-04T15:25:57.357Z,24.81
2022-09-04T15:31:14.658Z,25.14
2022-09-04T15:36:22.648Z,25.43
2022-09-04T15:41:37.048Z,25.70
2022-09-04T15:46:46.224Z,25.92
2022-09-04T15:52:10.240Z,26.10
2022-09-04T15:57:20.837Z,26.31
2022-09-04T16:02:38.958Z,26.52
2022-09-04T16:08:03.602Z,26.70
2022-09-04T16:13:25.245Z,26.87
2022-09-04T16:18:47.145Z,27.00
2022-09-04T16:23:50.525Z,27.14
2022-09-04T16:28:58.690Z,27.25
2022-09-04T16:34:24.082Z,27.30
2022-09-04T16:39:31.863Z,27.34
2022-09-04T16:44:44.553Z,27.38
2022-09-04T16:49:52.031Z,27.50
2022-09-04T16:54:56.122Z,27.58
2022-09-04T17:00:05.549Z,27.65
2022-09-04T17:05:35.061Z,27.66
2022-09-04T17:10:54.391Z,27.63
2022-09-04T17:16:25.473Z,27.55
2022-09-04T17:27:20.614Z,27.35
2022-09-04T17:28:57.033Z,27.03
2022-09-04T17:37:23.605Z,26.79
2022-09-04T17:40:38.904Z,26.53
2022-09-04T17:44:09.319Z,26.26
2022-09-04T17:49:29.473Z,26.00
2022-09-04T17:54:43.078Z,25.77
2022-09-04T18:00:05.647Z,25.54
2022-09-04T18:05:18.803Z,25.30
2022-09-04T18:10:34.298Z,25.08
2022-09-04T18:15:49.138Z,24.88
2022-09-04T18:21:02.244Z,24.67
2022-09-04T18:26:18.739Z,24.46
2022-09-04T18:37:06.585Z,24.29
2022-09-04T18:37:46.686Z,24.14
2022-09-04T18:50:40.489Z,24.00
2022-09-04T18:50:45.737Z,23.94
2022-09-04T18:54:00.516Z,23.91
2022-09-04T18:59:14.305Z,23.89
2022-09-04T19:04:18.979Z,23.83
2022-09-04T19:09:26.055Z,23.76
2022-09-04T19:14:37.060Z,23.65
2022-09-04T19:20:02.665Z,23.55
2022-09-04T19:25:28.379Z,23.49
2022-09-04T19:30:46.847Z,23.46
2022-09-04T19:36:00.662Z,23.43
2022-09-04T19:46:07.511Z,23.37
2022-09-04T19:47:27.370Z,23.31
2022-09-04T19:53:32.177Z,23.22
2022-09-04T19:58:10.441Z,23.21
2022-09-04T20:03:29.919Z,23.15
2022-09-04T20:08:40.045Z,23.14
2022-09-04T20:13:50.685Z,23.09
2022-09-04T20:19:03.858Z,23.05
2022-09-04T20:24:13.498Z,23.01
2022-09-04T20:29:30.682Z,22.96
2022-09-04T20:34:49.809Z,22.86
2022-09-04T20:40:30.208Z,22.78
2022-09-04T20:52:42.499Z,22.69
2022-09-04T20:53:05.639Z,22.63
2022-09-04T20:57:38.760Z,22.52
2022-09-04T21:03:23.715Z,22.45
2022-09-04T21:08:19.888Z,22.42
2022-09-04T21:13:31.870Z,22.41
2022-09-04T21:19:11.312Z,22.41
2022-09-04T21:24:35.389Z,22.39
2022-09-04T21:29:51.898Z,22.39
2022-09-04T21:35:16.206Z,22.36
2022-09-04T21:40:51.013Z,22.34
2022-09-04T21:46:13.528Z,22.28
2022-09-04T21:51:49.002Z,22.23
2022-09-04T22:02:28.188Z,22.17
2022-09-04T22:03:01.451Z,22.12
2022-09-04T22:13:20.599Z,22.05
2022-09-04T22:13:57.530Z,22.02
2022-09-04T22:19:40.956Z,21.97
2022-09-04T22:25:04.302Z,21.90
2022-09-04T22:30:09.383Z,21.87
2022-09-04T22:35:35.924Z,21.89
2022-09-04T22:41:05.923Z,21.89
2022-09-04T22:46:30.677Z,21.91
2022-09-04T22:51:43.437Z,21.90
2022-09-04T22:57:12.175Z,21.89
2022-09-04T23:13:03.437Z,21.84
2022-09-04T23:14:20.137Z,21.80
2022-09-04T23:26:38.818Z,21.79
2022-09-04T23:26:43.220Z,21.77
2022-09-04T23:31:29.126Z,21.75
2022-09-04T23:36:53.872Z,21.71
2022-09-04T23:42:11.792Z,21.68
2022-09-04T23:47:47.927Z,21.66
2022-09-04T23:53:02.921Z,21.62
2022-09-04T23:58:57.834Z,21.60
